createdAt,value
2022-08-23T00:01:31.245Z,0.10
2022-08-23T00:04:02.333Z,0.70
2022-08-23T00:06:29.745Z,0.30
2022-08-23T00:08:56.600Z,0.13
2022-08-23T00:11:36.470Z,0.25
2022-08-23T00:14:16.219Z,0.10
2022-08-23T00:16:43.151Z,0.10
2022-08-23T00:19:12.641Z,0.20
2022-08-23T00:21:40.102Z,0.43
2022-08-23T00:24:08.883Z,0.10
2022-08-23T00:27:05.015Z,0.20
2022-08-23T00:29:33.692Z,0.30
2022-08-23T00:32:00.740Z,0.47
2022-08-23T00:34:28.355Z,0.28
2022-08-23T00:36:55.577Z,0.30
2022-08-23T00:39:23.613Z,0.15
2022-08-23T00:41:50.866Z,0.10
2022-08-23T00:44:47.270Z,4.10
2022-08-23T00:47:33.736Z,0.25
2022-08-23T00:50:23.633Z,0.75
2022-08-23T00:52:59.034Z,0.65
2022-08-23T00:55:26.657Z,0.20
2022-08-23T00:57:53.465Z,0.13
2022-08-23T01:00:20.742Z,0.10
2022-08-23T01:02:48.631Z,0.32
2022-08-23T01:05:15.486Z,0.20
2022-08-23T01:07:51.733Z,0.25
2022-08-23T01:10:37.982Z,0.10
2022-08-23T01:13:25.815Z,0.20
2022-08-23T01:15:57.034Z,0.10
2022-08-23T01:18:26.385Z,0.20
2022-08-23T01:21:15.223Z,0.20
2022-08-23T01:23:58.029Z,0.75
2022-08-23T01:26:26.105Z,0.10
2022-08-23T01:28:55.940Z,0.10
2022-08-23T01:31:23.610Z,0.10
2022-08-23T01:33:55.409Z,0.10
2022-08-23T01:36:22.886Z,0.43
2022-08-23T01:38:52.013Z,0.25
2022-08-23T01:41:19.378Z,0.47
2022-08-23T01:43:46.384Z,0.28
2022-08-23T01:46:18.135Z,0.30
2022-08-23T01:48:46.413Z,0.30
2022-08-23T01:51:16.783Z,0.10
2022-08-23T01:53:43.982Z,0.20
2022-08-23T01:56:11.047Z,0.10
2022-08-23T01:58:39.265Z,0.28
2022-08-23T02:01:06.892Z,0.17
2022-08-23T02:03:34.529Z,0.10
2022-08-23T02:06:01.231Z,0.35
2022-08-23T02:08:47.058Z,0.20
2022-08-23T02:11:18.826Z,0.10
2022-08-23T02:13:46.447Z,0.10
2022-08-23T02:16:22.201Z,0.10
2022-08-23T02:18:49.269Z,0.10
2022-08-23T02:21:16.320Z,0.40
2022-08-23T02:23:43.526Z,0.10
2022-08-23T02:26:10.623Z,0.20
2022-08-23T02:28:37.597Z,0.20
2022-08-23T02:31:04.444Z,0.28
2022-08-23T02:33:32.942Z,1.35
2022-08-23T02:36:00.370Z,0.35
2022-08-23T02:38:27.110Z,0.70
2022-08-23T02:41:00.964Z,0.10
2022-08-23T02:43:30.131Z,0.10
2022-08-23T02:45:57.871Z,0.20
2022-08-23T02:48:24.657Z,0.20
2022-08-23T02:51:01.144Z,0.32
2022-08-23T02:53:29.363Z,0.15
2022-08-23T02:55:56.738Z,0.35
2022-08-23T02:58:24.193Z,0.10
2022-08-23T03:00:51.070Z,0.80
2022-08-23T03:03:22.526Z,0.10
2022-08-23T03:05:50.282Z,0.43
2022-08-23T03:08:19.312Z,0.20
2022-08-23T03:10:50.767Z,0.75
2022-08-23T03:13:17.717Z,0.20
2022-08-23T03:15:56.316Z,0.55
2022-08-23T03:18:24.898Z,0.10
2022-08-23T03:20:51.794Z,0.10
2022-08-23T03:23:18.581Z,0.15
2022-08-23T03:25:45.741Z,0.50
2022-08-23T03:28:26.709Z,0.25
2022-08-23T03:30:54.639Z,0.20
2022-08-23T03:33:21.813Z,0.15
2022-08-23T03:35:49.482Z,0.05
2022-08-23T03:38:17.735Z,0.10
2022-08-23T03:40:45.058Z,0.10
2022-08-23T03:43:11.946Z,0.10
2022-08-23T03:45:39.045Z,0.13
2022-08-23T03:48:07.078Z,0.30
2022-08-23T03:50:35.356Z,0.10
2022-08-23T03:53:02.190Z,0.20
2022-08-23T03:55:29.232Z,0.10
2022-08-23T03:57:56.691Z,0.20
2022-08-23T04:00:23.550Z,0.10
2022-08-23T04:02:53.077Z,0.10
2022-08-23T04:05:23.082Z,0.10
2022-08-23T04:07:50.014Z,0.40
2022-08-23T04:10:17.649Z,0.10
2022-08-23T04:12:48.491Z,0.10
2022-08-23T04:15:17.166Z,0.25
2022-08-23T04:17:43.968Z,0.20
2022-08-23T04:20:11.176Z,0.10
2022-08-23T04:22:52.499Z,0.10
2022-08-23T04:25:33.697Z,0.20
2022-08-23T04:28:03.958Z,0.13
2022-08-23T04:30:32.317Z,0.10
2022-08-23T04:32:59.918Z,0.22
2022-08-23T04:35:29.946Z,0.10
2022-08-23T04:37:57.149Z,0.10
2022-08-23T04:40:43.633Z,0.68
2022-08-23T04:43:10.466Z,0.20
2022-08-23T04:45:39.248Z,0.13
2022-08-23T04:48:11.912Z,0.10
2022-08-23T04:50:43.154Z,0.50
2022-08-23T04:53:19.099Z,0.15
2022-08-23T04:56:02.882Z,0.20
2022-08-23T04:58:31.427Z,0.10
2022-08-23T05:01:01.101Z,1.17
2022-08-23T05:03:29.896Z,0.20
2022-08-23T05:05:58.737Z,0.10
2022-08-23T05:08:33.050Z,0.30
2022-08-23T05:11:05.156Z,0.20
2022-08-23T05:13:34.891Z,0.15
2022-08-23T05:16:04.322Z,0.52
2022-08-23T05:18:35.027Z,0.13
2022-08-23T05:21:02.226Z,0.20
2022-08-23T05:23:31.974Z,0.30
2022-08-23T05:26:08.364Z,0.15
2022-08-23T05:28:42.543Z,0.22
2022-08-23T05:31:19.314Z,0.20
2022-08-23T05:33:51.719Z,0.13
2022-08-23T05:36:27.564Z,0.28
2022-08-23T05:38:55.093Z,1.33
2022-08-23T05:41:22.041Z,0.35
2022-08-23T05:43:56.234Z,0.10
2022-08-23T05:46:28.342Z,0.10
2022-08-23T05:49:15.565Z,0.22
2022-08-23T05:51:51.545Z,0.55
2022-08-23T05:54:20.480Z,0.20
2022-08-23T05:56:59.961Z,0.10
2022-08-23T05:59:27.144Z,1.00
2022-08-23T06:01:54.128Z,0.10
2022-08-23T06:04:21.535Z,0.10
2022-08-23T06:06:49.011Z,0.35
2022-08-23T06:09:18.122Z,0.30
2022-08-23T06:11:46.551Z,0.50
2022-08-23T06:14:14.474Z,0.10
2022-08-23T06:16:47.993Z,0.30
2022-08-23T06:19:19.222Z,0.10
2022-08-23T06:21:49.800Z,0.43
2022-08-23T06:24:23.756Z,0.82
2022-08-23T06:26:59.672Z,0.30
2022-08-23T06:29:26.634Z,0.40
2022-08-23T06:32:13.395Z,0.10
2022-08-23T06:34:52.103Z,0.30
2022-08-23T06:37:52.962Z,0.32
2022-08-23T06:40:42.680Z,0.10
2022-08-23T06:43:25.666Z,0.30
2022-08-23T06:46:24.368Z,0.30
2022-08-23T06:48:51.833Z,2.92
2022-08-23T06:51:24.040Z,0.20
2022-08-23T06:54:26.572Z,0.20
2022-08-23T06:57:00.331Z,0.63
2022-08-23T06:59:31.265Z,0.10
2022-08-23T07:02:14.656Z,0.15
2022-08-23T07:05:00.122Z,0.80
2022-08-23T07:07:44.065Z,3.83
2022-08-23T07:10:26.437Z,0.17
2022-08-23T07:12:55.478Z,0.10
2022-08-23T07:15:22.737Z,1.80
2022-08-23T07:17:50.037Z,0.20
2022-08-23T07:20:19.425Z,0.20
2022-08-23T07:22:46.787Z,0.30
2022-08-23T07:25:14.130Z,0.30
2022-08-23T07:27:45.046Z,0.20
2022-08-23T07:30:14.431Z,0.20
2022-08-23T07:32:41.187Z,0.20
2022-08-23T07:35:18.315Z,0.30
2022-08-23T07:37:46.059Z,0.13
2022-08-23T07:40:20.603Z,0.52
2022-08-23T07:42:52.574Z,0.60
2022-08-23T07:45:23.082Z,0.28
2022-08-23T07:47:55.014Z,3.42
2022-08-23T07:50:30.416Z,0.25
2022-08-23T07:53:03.151Z,0.32
2022-08-23T07:55:30.599Z,0.47
2022-08-23T07:58:13.873Z,0.20
2022-08-23T08:00:54.262Z,0.28
2022-08-23T08:03:55.042Z,0.90
2022-08-23T08:06:27.254Z,0.40
2022-08-23T08:08:54.498Z,0.15
2022-08-23T08:11:24.662Z,0.15
2022-08-23T08:16:29.864Z,0.65
2022-08-23T08:18:59.468Z,0.20
2022-08-23T08:21:45.615Z,0.70
2022-08-23T08:24:32.577Z,0.47
2022-08-23T08:27:07.895Z,0.10
2022-08-23T08:29:34.976Z,0.20
2022-08-23T08:32:01.909Z,0.20
2022-08-23T08:34:30.050Z,1.50
2022-08-23T08:36:58.714Z,1.17
2022-08-23T08:39:31.705Z,0.40
2022-08-23T08:42:13.098Z,0.20
2022-08-23T08:44:53.388Z,0.47
2022-08-23T08:47:49.333Z,0.50
2022-08-23T08:50:27.214Z,0.25
2022-08-23T08:53:16.305Z,0.40
2022-08-23T08:56:29.799Z,1.10
2022-08-23T08:59:28.103Z,0.52
2022-08-23T09:01:55.640Z,0.20
2022-08-23T09:04:30.422Z,0.20
2022-08-23T09:07:32.026Z,0.20
2022-08-23T09:10:03.938Z,0.25
2022-08-23T09:12:34.210Z,0.20
2022-08-23T09:17:57.917Z,0.10
2022-08-23T09:20:32.917Z,0.60
2022-08-23T09:23:13.147Z,0.32
2022-08-23T09:25:41.972Z,0.22
2022-08-23T09:28:16.014Z,0.10
2022-08-23T09:31:08.331Z,0.40
2022-08-23T09:33:46.026Z,0.20
2022-08-23T09:36:36.969Z,0.20
2022-08-23T09:39:10.185Z,0.25
2022-08-23T09:41:42.085Z,2.83
2022-08-23T09:44:16.876Z,0.30
2022-08-23T09:46:44.343Z,0.60
2022-08-23T09:49:25.722Z,0.20
2022-08-23T09:51:58.346Z,0.65
2022-08-23T09:54:34.698Z,0.40
2022-08-23T09:57:06.104Z,0.20
2022-08-23T09:59:41.873Z,0.35
2022-08-23T10:02:33.546Z,0.20
2022-08-23T10:05:28.514Z,0.90
2022-08-23T10:08:01.059Z,0.40
2022-08-23T10:10:43.796Z,0.47
2022-08-23T10:13:16.669Z,1.58
2022-08-23T10:15:49.671Z,0.93
2022-08-23T10:18:39.227Z,0.45
2022-08-23T10:21:29.419Z,8.10
2022-08-23T10:26:45.735Z,0.20
2022-08-23T10:29:36.742Z,0.30
2022-08-23T10:33:01.564Z,0.10
2022-08-23T10:35:51.550Z,1.27
2022-08-23T10:38:31.253Z,0.20
2022-08-23T10:41:18.552Z,1.17
2022-08-23T10:44:15.095Z,0.38
2022-08-23T10:46:53.741Z,8.77
2022-08-23T10:49:21.417Z,0.30
2022-08-23T10:51:51.913Z,0.40
2022-08-23T10:54:35.444Z,1.65
2022-08-23T10:57:06.371Z,0.20
2022-08-23T10:59:34.834Z,0.38
2022-08-23T11:02:25.139Z,1.02
2022-08-23T11:05:10.511Z,0.45
2022-08-23T11:07:41.463Z,0.40
2022-08-23T11:10:26.046Z,0.20
2022-08-23T11:12:55.230Z,0.70
2022-08-23T11:15:27.805Z,1.08
2022-08-23T11:17:59.216Z,0.60
2022-08-23T11:20:52.153Z,0.63
2022-08-23T11:23:42.441Z,0.87
2022-08-23T11:26:37.600Z,0.35
2022-08-23T11:29:07.638Z,0.52
2022-08-23T11:31:43.046Z,0.30
2022-08-23T11:34:29.727Z,1.35
2022-08-23T11:37:18.634Z,1.17
2022-08-23T11:39:59.225Z,1.35
2022-08-23T11:42:38.166Z,0.40
2022-08-23T11:45:27.423Z,0.43
2022-08-23T11:48:17.387Z,0.32
2022-08-23T11:51:05.393Z,0.40
2022-08-23T11:53:53.678Z,0.30
2022-08-23T11:56:38.521Z,0.35
2022-08-23T11:59:54.571Z,1.08
2022-08-23T12:02:38.351Z,0.38
2022-08-23T12:05:42.806Z,0.63
2022-08-23T12:08:09.586Z,0.52
2022-08-23T12:10:42.921Z,1.38
2022-08-23T12:13:20.610Z,0.50
2022-08-23T12:16:16.848Z,0.70
2022-08-23T12:18:47.729Z,0.40
2022-08-23T12:21:29.510Z,0.70
2022-08-23T12:24:03.036Z,2.60
2022-08-23T12:26:38.478Z,1.88
2022-08-23T12:29:44.076Z,0.30
2022-08-23T12:32:19.653Z,0.43
2022-08-23T12:35:04.294Z,0.20
2022-08-23T12:37:43.649Z,0.20
2022-08-23T12:40:22.981Z,0.30
2022-08-23T12:42:51.413Z,0.80
2022-08-23T12:45:21.491Z,0.20
2022-08-23T12:48:00.216Z,0.13
2022-08-23T12:50:33.123Z,0.20
2022-08-23T12:53:08.368Z,0.38
2022-08-23T12:55:47.420Z,0.40
2022-08-23T12:58:16.360Z,0.67
2022-08-23T13:00:53.402Z,0.38
2022-08-23T13:03:34.013Z,0.20
2022-08-23T13:06:05.370Z,0.47
2022-08-23T13:08:48.052Z,0.20
2022-08-23T13:11:19.848Z,0.93
2022-08-23T13:13:46.993Z,0.20
2022-08-23T13:16:27.073Z,0.38
2022-08-23T13:18:56.324Z,0.20
2022-08-23T13:21:23.007Z,0.10
2022-08-23T13:23:53.832Z,1.27
2022-08-23T13:26:39.725Z,0.20
2022-08-23T13:29:15.213Z,0.22
2022-08-23T13:32:03.418Z,0.40
2022-08-23T13:34:40.025Z,0.90
2022-08-23T13:37:27.417Z,1.27
2022-08-23T13:39:58.066Z,0.40
2022-08-23T13:42:29.020Z,0.25
2022-08-23T13:44:55.770Z,0.40
2022-08-23T13:47:28.509Z,0.20
2022-08-23T13:49:56.160Z,0.30
2022-08-23T13:52:50.991Z,0.63
2022-08-23T13:55:13.062Z,0.38
2022-08-23T13:57:41.495Z,0.22
2022-08-23T14:00:10.796Z,0.20
2022-08-23T14:02:38.291Z,0.30
2022-08-23T14:05:09.627Z,0.47
2022-08-23T14:07:36.635Z,1.23
2022-08-23T14:10:04.683Z,0.50
2022-08-23T14:12:33.489Z,0.30
2022-08-23T14:15:02.846Z,0.15
2022-08-23T14:17:30.997Z,0.22
2022-08-23T14:22:44.857Z,1.67
2022-08-23T14:25:12.612Z,0.40
2022-08-23T14:27:41.382Z,2.38
2022-08-23T14:30:11.501Z,0.55
2022-08-23T14:32:41.290Z,0.75
2022-08-23T14:40:24.433Z,0.70
2022-08-23T14:42:51.136Z,0.90
2022-08-23T14:45:18.569Z,0.40
2022-08-23T14:47:45.652Z,0.40
2022-08-23T14:50:13.722Z,0.40
2022-08-23T14:52:45.707Z,2.65
2022-08-23T14:55:13.829Z,2.40
2022-08-23T14:57:41.225Z,0.45
2022-08-23T15:00:13.741Z,0.60
2022-08-23T15:02:46.644Z,4.50
2022-08-23T15:05:14.516Z,0.70
2022-08-23T15:07:41.372Z,0.43
2022-08-23T15:10:10.129Z,0.43
2022-08-23T15:15:24.422Z,0.55
2022-08-23T15:17:54.805Z,0.40
2022-08-23T15:22:55.572Z,0.88
2022-08-23T15:25:23.926Z,0.30
2022-08-23T15:27:51.154Z,0.45
2022-08-23T15:30:18.225Z,0.57
2022-08-23T15:32:52.783Z,1.65
2022-08-23T15:35:25.363Z,0.80
2022-08-23T15:37:54.510Z,0.30
2022-08-23T15:40:21.442Z,3.70
2022-08-23T15:42:49.076Z,1.10
2022-08-23T15:45:15.905Z,1.70
2022-08-23T15:47:53.291Z,4.75
2022-08-23T15:50:23.280Z,1.40
2022-08-23T15:52:50.615Z,2.80
2022-08-23T15:55:17.722Z,3.60
2022-08-23T15:57:47.218Z,3.83
2022-08-23T16:00:17.723Z,4.20
2022-08-23T16:03:14.447Z,6.05
2022-08-23T16:05:32.245Z,7.20
2022-08-23T16:10:27.502Z,7.45
2022-08-23T16:12:55.286Z,7.22
2022-08-23T16:15:22.387Z,8.60
2022-08-23T16:17:49.854Z,9.35
2022-08-23T16:20:17.677Z,9.73
2022-08-23T16:22:44.415Z,11.40
2022-08-23T16:25:11.286Z,11.18
2022-08-23T16:27:38.126Z,3.70
2022-08-23T16:30:06.014Z,1.98
2022-08-23T16:32:32.706Z,2.60
2022-08-23T16:34:59.442Z,2.60
2022-08-23T16:37:26.205Z,2.00
2022-08-23T16:39:54.459Z,2.05
2022-08-23T16:42:21.361Z,1.85
2022-08-23T16:44:48.687Z,2.33
2022-08-23T16:47:16.277Z,2.42
2022-08-23T16:54:39.179Z,1.67
2022-08-23T16:57:06.212Z,0.70
2022-08-23T16:59:36.171Z,0.50
2022-08-23T17:02:10.880Z,0.40
2022-08-23T17:04:38.053Z,0.30
2022-08-23T17:07:05.127Z,0.35
2022-08-23T17:09:31.940Z,0.40
2022-08-23T17:11:58.809Z,0.82
2022-08-23T17:14:26.324Z,3.25
2022-08-23T17:16:53.273Z,0.80
2022-08-23T17:19:20.094Z,0.20
2022-08-23T17:21:46.832Z,0.75
2022-08-23T17:24:13.639Z,2.15
2022-08-23T17:26:40.326Z,0.85
2022-08-23T17:29:09.352Z,0.30
2022-08-23T17:31:36.949Z,0.30
2022-08-23T17:34:04.478Z,0.22
2022-08-23T17:36:31.113Z,0.30
2022-08-23T17:38:59.369Z,0.20
2022-08-23T17:41:27.530Z,0.22
2022-08-23T17:43:55.322Z,0.73
2022-08-23T17:46:22.661Z,0.30
2022-08-23T17:48:49.378Z,1.50
2022-08-23T17:51:16.095Z,0.90
2022-08-23T17:53:43.402Z,0.20
2022-08-23T17:56:12.336Z,0.60
2022-08-23T17:58:39.459Z,0.50
2022-08-23T18:01:06.521Z,0.30
2022-08-23T18:03:33.632Z,2.15
2022-08-23T18:06:00.578Z,0.47
2022-08-23T18:08:27.344Z,0.38
2022-08-23T18:10:54.007Z,0.95
2022-08-23T18:13:20.722Z,0.28
2022-08-23T18:15:47.478Z,1.02
2022-08-23T18:18:14.515Z,1.20
2022-08-23T18:20:41.377Z,0.40
2022-08-23T18:23:08.330Z,0.30
2022-08-23T18:25:35.395Z,0.22
2022-08-23T18:28:09.774Z,0.25
2022-08-23T18:30:40.206Z,0.52
2022-08-23T18:33:07.086Z,0.30
2022-08-23T18:35:34.580Z,0.50
2022-08-23T18:38:01.314Z,0.35
2022-08-23T18:40:29.395Z,0.50
2022-08-23T18:42:56.429Z,1.08
2022-08-23T18:45:23.305Z,0.95
2022-08-23T18:47:50.205Z,0.20
2022-08-23T18:50:17.874Z,0.68
2022-08-23T18:52:44.743Z,0.55
2022-08-23T18:55:11.483Z,1.08
2022-08-23T18:57:39.018Z,0.20
2022-08-23T19:00:09.690Z,0.30
2022-08-23T19:02:36.433Z,0.22
2022-08-23T19:05:03.705Z,0.32
2022-08-23T19:07:30.696Z,0.40
2022-08-23T19:09:57.419Z,3.03
2022-08-23T19:12:24.204Z,0.20
2022-08-23T19:14:50.867Z,0.30
2022-08-23T19:17:17.606Z,0.38
2022-08-23T19:19:44.293Z,0.65
2022-08-23T19:22:11.006Z,0.73
2022-08-23T19:24:37.825Z,0.30
2022-08-23T19:27:04.989Z,1.75
2022-08-23T19:29:31.955Z,0.22
2022-08-23T19:31:59.342Z,3.50
2022-08-23T19:34:26.837Z,0.10
2022-08-23T19:37:00.686Z,0.95
2022-08-23T19:39:29.050Z,0.20
2022-08-23T19:41:55.716Z,0.20
2022-08-23T19:44:22.684Z,0.40
2022-08-23T19:46:50.139Z,0.65
2022-08-23T19:49:16.942Z,0.70
2022-08-23T19:51:43.994Z,0.25
2022-08-23T19:54:12.541Z,0.20
2022-08-23T19:56:44.859Z,0.43
2022-08-23T19:59:16.564Z,0.20
2022-08-23T20:01:43.401Z,1.17
2022-08-23T20:04:10.984Z,0.47
2022-08-23T20:06:37.829Z,0.93
2022-08-23T20:09:05.810Z,0.50
2022-08-23T20:11:32.770Z,0.30
2022-08-23T20:14:00.216Z,0.20
2022-08-23T20:16:28.433Z,0.20
2022-08-23T20:18:55.323Z,0.20
2022-08-23T20:21:23.611Z,0.30
2022-08-23T20:24:04.124Z,0.52
2022-08-23T20:26:35.058Z,0.73
2022-08-23T20:29:04.182Z,0.30
2022-08-23T20:31:36.090Z,0.20
2022-08-23T20:34:04.774Z,0.65
2022-08-23T20:36:33.409Z,0.63
2022-08-23T20:39:01.238Z,0.13
2022-08-23T20:41:29.735Z,0.22
2022-08-23T20:43:57.069Z,0.32
2022-08-23T20:46:24.318Z,1.05
2022-08-23T20:48:52.021Z,0.50
2022-08-23T20:51:19.664Z,0.47
2022-08-23T20:53:46.715Z,0.20
2022-08-23T20:56:13.482Z,0.35
2022-08-23T20:58:40.297Z,0.45
2022-08-23T21:01:10.343Z,0.20
2022-08-23T21:03:38.678Z,0.20
2022-08-23T21:06:07.584Z,0.30
2022-08-23T21:08:35.136Z,0.15
2022-08-23T21:11:08.958Z,0.25
2022-08-23T21:13:35.994Z,0.38
2022-08-23T21:16:02.939Z,0.45
2022-08-23T21:18:29.666Z,0.25
2022-08-23T21:20:56.790Z,0.40
2022-08-23T21:23:24.766Z,0.57
2022-08-23T21:25:56.102Z,0.17
2022-08-23T21:28:24.303Z,0.20
2022-08-23T21:30:51.163Z,0.35
2022-08-23T21:33:19.263Z,0.45
2022-08-23T21:35:46.140Z,0.50
2022-08-23T21:38:12.837Z,0.45
2022-08-23T21:40:39.862Z,0.22
2022-08-23T21:43:06.618Z,0.20
2022-08-23T21:45:33.822Z,1.02
2022-08-23T21:48:01.435Z,0.70
2022-08-23T21:50:28.632Z,0.68
2022-08-23T21:52:56.577Z,0.30
2022-08-23T21:55:36.901Z,0.47
2022-08-23T21:58:03.984Z,0.20
2022-08-23T22:00:31.303Z,0.40
2022-08-23T22:02:58.566Z,0.80
2022-08-23T22:05:26.546Z,0.20
2022-08-23T22:07:53.766Z,0.20
2022-08-23T22:10:21.074Z,0.22
2022-08-23T22:12:47.798Z,0.40
2022-08-23T22:15:15.086Z,0.30
2022-08-23T22:17:41.868Z,0.50
2022-08-23T22:20:09.609Z,0.55
2022-08-23T22:22:36.796Z,0.52
2022-08-23T22:25:04.064Z,0.57
2022-08-23T22:27:32.402Z,0.40
2022-08-23T22:29:59.484Z,0.30
2022-08-23T22:32:26.657Z,0.57
2022-08-23T22:34:53.396Z,0.20
2022-08-23T22:37:20.375Z,0.70
2022-08-23T22:39:47.719Z,0.80
2022-08-23T22:42:16.332Z,0.10
2022-08-23T22:44:43.030Z,0.35
2022-08-23T22:47:10.051Z,0.20
2022-08-23T22:49:37.983Z,1.33
2022-08-23T22:52:04.800Z,0.50
2022-08-23T22:54:31.490Z,0.20
2022-08-23T22:56:58.465Z,0.28
2022-08-23T22:59:27.666Z,0.50
2022-08-23T23:01:59.869Z,0.70
2022-08-23T23:06:57.440Z,0.80
2022-08-23T23:09:24.778Z,0.73
2022-08-23T23:11:52.145Z,0.50
2022-08-23T23:14:20.633Z,0.30
2022-08-23T23:16:49.427Z,0.68
2022-08-23T23:19:36.235Z,0.50
2022-08-23T23:22:04.002Z,0.82
2022-08-23T23:24:37.777Z,0.38
2022-08-23T23:27:04.907Z,0.65
2022-08-23T23:29:32.375Z,0.43
2022-08-23T23:31:59.535Z,0.30
2022-08-23T23:34:27.896Z,0.20
2022-08-23T23:36:56.378Z,0.40
2022-08-23T23:39:23.466Z,0.93
2022-08-23T23:41:50.640Z,0.38
2022-08-23T23:44:17.304Z,0.40
2022-08-23T23:46:56.460Z,0.95
2022-08-23T23:49:23.510Z,0.57
2022-08-23T23:51:58.689Z,0.38
2022-08-23T23:54:25.650Z,0.30
2022-08-23T23:56:52.390Z,0.30
2022-08-23T23:59:19.598Z,0.30
